sensor_id;sensor_type;location;lat;lon;timestamp;temperature;humidity
77700;DHT22;66867;42.658;23.320;2023-03-07T00:00:00;10.6;60
77700;DHT22;66867;42.658;23.320;2023-03-07T00:01:00;10.6;60
77700;DHT22;66867;42.658;23.320;2023-03-07T00:02:00;10.6;60
77700;DHT22;66867;42.658;23.320;2023-03-07T00:03:00;10.6;59
77700;DHT22;66867;42.658;23.320;2023-03-07T00:04:00;10.5;59
77700;DHT22;66867;42.658;23.320;2023-03-07T00:05:00;10.5;59
77700;DHT22;66867;42.658;23.320;2023-03-07T00:06:01;10.5;60
77700;DHT22;66867;42.658;23.320;2023-03-07T00:07:00;10.4;60
77700;DHT22;66867;42.658;23.320;2023-03-07T00:08:00;10.3;60
77700;DHT22;66867;42.658;23.320;2023-03-07T00:09:00;10.3;60
77700;DHT22;66867;42.658;23.320;2023-03-07T00:10:00;10.4;59
77700;DHT22;66867;42.658;23.320;2023-03-07T00:11:02;10.4;59
77700;DHT22;66867;42.658;23.320;2023-03-07T00:12:00;10.4;59
77700;DHT22;66867;42.658;23.320;2023-03-07T00:13:00;10.5;60
77700;DHT22;66867;42.658;23.320;2023-03-07T00:14:00;10.5;60
77700;DHT22;66867;42.658;23.320;2023-03-07T00:15:00;10.3;60
77700;DHT22;66867;42.658;23.320;2023-03-07T00:16:04;10.4;60
77700;DHT22;66867;42.658;23.320;2023-03-07T00:17:00;10.4;60
77700;DHT22;66867;42.658;23.320;2023-03-07T00:18:00;10.4;60
77700;DHT22;66867;42.658;23.320;2023-03-07T00:19:00;10.4;60
77700;DHT22;66867;42.658;23.320;2023-03-07T00:20:00;10.4;60
77700;DHT22;66867;42.658;23.320;2023-03-07T00:21:01;10.4;61
77700;DHT22;66867;42.658;23.320;2023-03-07T00:22:00;10.3;61
77700;DHT22;66867;42.658;23.320;2023-03-07T00:23:00;10.4;61
77700;DHT22;66867;42.658;23.320;2023-03-07T00:24:00;10.3;61
77700;DHT22;66867;42.658;23.320;2023-03-07T00:25:00;10.3;61
77700;DHT22;66867;42.658;23.320;2023-03-07T00:26:02;10.3;61
77700;DHT22;66867;42.658;23.320;2023-03-07T00:27:00;10.4;61
77700;DHT22;66867;42.658;23.320;2023-03-07T00:28:00;10.4;61
77700;DHT22;66867;42.658;23.320;2023-03-07T00:29:00;10.3;61
77700;DHT22;66867;42.658;23.320;2023-03-07T00:30:00;10.4;61
77700;DHT22;66867;42.658;23.320;2023-03-07T00:31:02;10.4;61
77700;DHT22;66867;42.658;23.320;2023-03-07T00:32:00;10.4;61
77700;DHT22;66867;42.658;23.320;2023-03-07T00:33:00;10.4;61
77700;DHT22;66867;42.658;23.320;2023-03-07T00:34:00;10.4;61
77700;DHT22;66867;42.658;23.320;2023-03-07T00:35:00;10.4;61
77700;DHT22;66867;42.658;23.320;2023-03-07T00:36:01;10.4;61
77700;DHT22;66867;42.658;23.320;2023-03-07T00:37:00;10.4;61
77700;DHT22;66867;42.658;23.320;2023-03-07T00:38:00;10.5;61
77700;DHT22;66867;42.658;23.320;2023-03-07T00:39:00;10.5;61
77700;DHT22;66867;42.658;23.320;2023-03-07T00:40:00;10.5;60
77700;DHT22;66867;42.658;23.320;2023-03-07T00:41:02;10.5;61
77700;DHT22;66867;42.658;23.320;2023-03-07T00:42:00;10.5;61
77700;DHT22;66867;42.658;23.320;2023-03-07T00:43:00;10.5;61
77700;DHT22;66867;42.658;23.320;2023-03-07T00:44:00;10.5;60
77700;DHT22;66867;42.658;23.320;2023-03-07T00:45:00;10.5;61
77700;DHT22;66867;42.658;23.320;2023-03-07T00:46:00;10.5;60
77700;DHT22;66867;42.658;23.320;2023-03-07T00:47:00;10.5;60
77700;DHT22;66867;42.658;23.320;2023-03-07T00:48:00;10.5;60
77700;DHT22;66867;42.658;23.320;2023-03-07T00:49:00;10.5;60
77700;DHT22;66867;42.658;23.320;2023-03-07T00:50:00;10.4;60
77700;DHT22;66867;42.658;23.320;2023-03-07T00:51:00;10.4;61
77700;DHT22;66867;42.658;23.320;2023-03-07T00:52:00;10.4;61
77700;DHT22;66867;42.658;23.320;2023-03-07T00:53:00;10.4;61
77700;DHT22;66867;42.658;23.320;2023-03-07T00:54:00;10.4;61
77700;DHT22;66867;42.658;23.320;2023-03-07T00:55:00;10.4;61
77700;DHT22;66867;42.658;23.320;2023-03-07T00:57:00;10.4;61
77700;DHT22;66867;42.658;23.320;2023-03-07T00:58:00;10.5;61
77700;DHT22;66867;42.658;23.320;2023-03-07T00:59:00;10.5;61
77700;DHT22;66867;42.658;23.320;2023-03-07T01:00:00;10.4;61
77700;DHT22;66867;42.658;23.320;2023-03-07T01:01:00;10.5;61
77700;DHT22;66867;42.658;23.320;2023-03-07T01:02:00;10.4;61
77700;DHT22;66867;42.658;23.320;2023-03-07T01:03:00;10.4;61
77700;DHT22;66867;42.658;23.320;2023-03-07T01:04:00;10.4;61
77700;DHT22;66867;42.658;23.320;2023-03-07T01:05:00;10.4;61
77700;DHT22;66867;42.658;23.320;2023-03-07T01:06:01;10.4;61
77700;DHT22;66867;42.658;23.320;2023-03-07T01:07:00;10.4;61
77700;DHT22;66867;42.658;23.320;2023-03-07T01:08:00;10.4;61
77700;DHT22;66867;42.658;23.320;2023-03-07T01:09:01;10.4;61
77700;DHT22;66867;42.658;23.320;2023-03-07T01:10:00;10.4;61
77700;DHT22;66867;42.658;23.320;2023-03-07T01:11:01;10.4;61
77700;DHT22;66867;42.658;23.320;2023-03-07T01:12:00;10.4;61
77700;DHT22;66867;42.658;23.320;2023-03-07T01:13:00;10.4;61
77700;DHT22;66867;42.658;23.320;2023-03-07T01:14:01;10.4;61
77700;DHT22;66867;42.658;23.320;2023-03-07T01:15:00;10.4;61
77700;DHT22;66867;42.658;23.320;2023-03-07T01:16:17;10.4;61
77700;DHT22;66867;42.658;23.320;2023-03-07T01:17:00;10.4;61
77700;DHT22;66867;42.658;23.320;2023-03-07T01:18:00;10.4;61
77700;DHT22;66867;42.658;23.320;2023-03-07T01:19:01;10.4;61
77700;DHT22;66867;42.658;23.320;2023-03-07T01:20:00;10.4;61
77700;DHT22;66867;42.658;23.320;2023-03-07T01:21:00;10.4;61
77700;DHT22;66867;42.658;23.320;2023-03-07T01:22:00;10.4;61
77700;DHT22;66867;42.658;23.320;2023-03-07T01:23:00;10.4;61
77700;DHT22;66867;42.658;23.320;2023-03-07T01:24:00;10.4;61
77700;DHT22;66867;42.658;23.320;2023-03-07T01:25:00;10.4;61
77700;DHT22;66867;42.658;23.320;2023-03-07T01:26:00;10.4;60
77700;DHT22;66867;42.658;23.320;2023-03-07T01:27:00;10.3;61
77700;DHT22;66867;42.658;23.320;2023-03-07T01:28:00;10.3;61
77700;DHT22;66867;42.658;23.320;2023-03-07T01:29:01;10.3;61
77700;DHT22;66867;42.658;23.320;2023-03-07T01:30:00;10.4;60
77700;DHT22;66867;42.658;23.320;2023-03-07T01:31:00;10.4;60
77700;DHT22;66867;42.658;23.320;2023-03-07T01:32:00;10.4;60
77700;DHT22;66867;42.658;23.320;2023-03-07T01:33:00;10.4;60
77700;DHT22;66867;42.658;23.320;2023-03-07T01:34:00;10.4;60
77700;DHT22;66867;42.658;23.320;2023-03-07T01:35:00;10.3;60
77700;DHT22;66867;42.658;23.320;2023-03-07T01:36:00;10.3;60
77700;DHT22;66867;42.658;23.320;2023-03-07T01:37:00;10.2;60
77700;DHT22;66867;42.658;23.320;2023-03-07T01:38:00;10.2;61
77700;DHT22;66867;42.658;23.320;2023-03-07T01:39:01;10.2;61
77700;DHT22;66867;42.658;23.320;2023-03-07T01:40:00;10.2;61
77700;DHT22;66867;42.658;23.320;2023-03-07T01:41:00;10.2;61
77700;DHT22;66867;42.658;23.320;2023-03-07T01:42:00;10.2;61
77700;DHT22;66867;42.658;23.320;2023-03-07T01:44:01;10.2;61
77700;DHT22;66867;42.658;23.320;2023-03-07T01:45:02;10.2;61
77700;DHT22;66867;42.658;23.320;2023-03-07T01:47:00;10.2;61
77700;DHT22;66867;42.658;23.320;2023-03-07T01:48:00;10.2;61
77700;DHT22;66867;42.658;23.320;2023-03-07T01:49:15;10.2;61
77700;DHT22;66867;42.658;23.320;2023-03-07T01:50:01;10.3;60
77700;DHT22;66867;42.658;23.320;2023-03-07T01:51:00;10.3;61
77700;DHT22;66867;42.658;23.320;2023-03-07T01:53:00;10.3;61
77700;DHT22;66867;42.658;23.320;2023-03-07T01:54:00;10.3;61
77700;DHT22;66867;42.658;23.320;2023-03-07T01:55:02;10.3;61
77700;DHT22;66867;42.658;23.320;2023-03-07T01:56:00;10.3;60
77700;DHT22;66867;42.658;23.320;2023-03-07T01:57:00;10.3;61
77700;DHT22;66867;42.658;23.320;2023-03-07T01:58:03;10.3;61
77700;DHT22;66867;42.658;23.320;2023-03-07T01:59:00;10.3;61
77700;DHT22;66867;42.658;23.320;2023-03-07T02:00:02;10.3;61
77700;DHT22;66867;42.658;23.320;2023-03-07T02:01:00;10.3;60
77700;DHT22;66867;42.658;23.320;2023-03-07T02:02:02;10.3;60
77700;DHT22;66867;42.658;23.320;2023-03-07T02:05:02;10.3;61
77700;DHT22;66867;42.658;23.320;2023-03-07T02:06:01;10.3;60
77700;DHT22;66867;42.658;23.320;2023-03-07T02:07:00;10.3;61
77700;DHT22;66867;42.658;23.320;2023-03-07T02:08:00;10.3;61
77700;DHT22;66867;42.658;23.320;2023-03-07T02:09:00;10.3;61
77700;DHT22;66867;42.658;23.320;2023-03-07T02:10:00;10.3;61
77700;DHT22;66867;42.658;23.320;2023-03-07T02:11:00;10.3;61
77700;DHT22;66867;42.658;23.320;2023-03-07T02:12:00;10.2;61
77700;DHT22;66867;42.658;23.320;2023-03-07T02:13:00;10.3;61
77700;DHT22;66867;42.658;23.320;2023-03-07T02:14:00;10.3;61
77700;DHT22;66867;42.658;23.320;2023-03-07T02:15:00;10.2;61
77700;DHT22;66867;42.658;23.320;2023-03-07T02:16:00;10.2;61
77700;DHT22;66867;42.658;23.320;2023-03-07T02:17:00;10.2;61
77700;DHT22;66867;42.658;23.320;2023-03-07T02:18:00;10.2;61
77700;DHT22;66867;42.658;23.320;2023-03-07T02:19:00;10.2;61
77700;DHT22;66867;42.658;23.320;2023-03-07T02:23:00;10.2;60
77700;DHT22;66867;42.658;23.320;2023-03-07T02:25:03;10.1;61
77700;DHT22;66867;42.658;23.320;2023-03-07T02:26:04;10.1;61
77700;DHT22;66867;42.658;23.320;2023-03-07T02:27:00;10.1;61
77700;DHT22;66867;42.658;23.320;2023-03-07T02:28:00;10.1;61
77700;DHT22;66867;42.658;23.320;2023-03-07T02:29:00;10.1;61
77700;DHT22;66867;42.658;23.320;2023-03-07T02:30:00;10.1;61
77700;DHT22;66867;42.658;23.320;2023-03-07T02:31:01;10.1;61
77700;DHT22;66867;42.658;23.320;2023-03-07T02:32:00;10.1;61
77700;DHT22;66867;42.658;23.320;2023-03-07T02:33:00;10.1;61
77700;DHT22;66867;42.658;23.320;2023-03-07T02:34:00;10.1;61
77700;DHT22;66867;42.658;23.320;2023-03-07T02:35:00;10.0;61
77700;DHT22;66867;42.658;23.320;2023-03-07T02:36:05;10.0;61
77700;DHT22;66867;42.658;23.320;2023-03-07T02:37:02;10.0;61
77700;DHT22;66867;42.658;23.320;2023-03-07T02:38:00;10.0;61
77700;DHT22;66867;42.658;23.320;2023-03-07T02:39:00;9.9;61
77700;DHT22;66867;42.658;23.320;2023-03-07T02:40:02;9.9;61
77700;DHT22;66867;42.658;23.320;2023-03-07T02:41:00;9.8;61
77700;DHT22;66867;42.658;23.320;2023-03-07T02:42:03;9.9;61
77700;DHT22;66867;42.658;23.320;2023-03-07T02:43:01;9.9;61
77700;DHT22;66867;42.658;23.320;2023-03-07T02:44:00;9.9;61
77700;DHT22;66867;42.658;23.320;2023-03-07T02:45:01;9.9;61
77700;DHT22;66867;42.658;23.320;2023-03-07T02:46:00;9.9;61
77700;DHT22;66867;42.658;23.320;2023-03-07T02:47:00;10.0;61
77700;DHT22;66867;42.658;23.320;2023-03-07T02:48:00;10.0;61
77700;DHT22;66867;42.658;23.320;2023-03-07T02:49:00;10.0;61
77700;DHT22;66867;42.658;23.320;2023-03-07T02:50:00;10.0;61
77700;DHT22;66867;42.658;23.320;2023-03-07T02:51:00;10.0;61
77700;DHT22;66867;42.658;23.320;2023-03-07T02:52:00;10.0;61
77700;DHT22;66867;42.658;23.320;2023-03-07T02:53:00;9.9;61
77700;DHT22;66867;42.658;23.320;2023-03-07T02:54:00;9.9;61
77700;DHT22;66867;42.658;23.320;2023-03-07T02:55:00;10.0;61
77700;DHT22;66867;42.658;23.320;2023-03-07T02:56:00;10.0;61
77700;DHT22;66867;42.658;23.320;2023-03-07T02:57:00;10.0;61
77700;DHT22;66867;42.658;23.320;2023-03-07T02:58:00;10.0;61
77700;DHT22;66867;42.658;23.320;2023-03-07T02:59:00;10.0;61
77700;DHT22;66867;42.658;23.320;2023-03-07T03:00:00;10.0;61
77700;DHT22;66867;42.658;23.320;2023-03-07T03:01:00;10.0;61
77700;DHT22;66867;42.658;23.320;2023-03-07T03:02:00;10.0;61
77700;DHT22;66867;42.658;23.320;2023-03-07T03:03:00;10.0;61
77700;DHT22;66867;42.658;23.320;2023-03-07T03:04:00;10.0;61
77700;DHT22;66867;42.658;23.320;2023-03-07T03:05:00;10.0;61
77700;DHT22;66867;42.658;23.320;2023-03-07T03:06:00;10.0;62
77700;DHT22;66867;42.658;23.320;2023-03-07T03:07:00;10.0;62
77700;DHT22;66867;42.658;23.320;2023-03-07T03:08:00;10.0;62
77700;DHT22;66867;42.658;23.320;2023-03-07T03:09:00;10.0;62
77700;DHT22;66867;42.658;23.320;2023-03-07T03:10:00;10.0;62
77700;DHT22;66867;42.658;23.320;2023-03-07T03:11:00;10.0;62
77700;DHT22;66867;42.658;23.320;2023-03-07T03:12:00;10.0;62
77700;DHT22;66867;42.658;23.320;2023-03-07T03:13:00;10.0;62
77700;DHT22;66867;42.658;23.320;2023-03-07T03:14:00;10.0;62
77700;DHT22;66867;42.658;23.320;2023-03-07T03:15:00;9.9;62
77700;DHT22;66867;42.658;23.320;2023-03-07T03:16:00;9.8;62
77700;DHT22;66867;42.658;23.320;2023-03-07T03:17:00;9.8;62
77700;DHT22;66867;42.658;23.320;2023-03-07T03:18:00;9.8;62
77700;DHT22;66867;42.658;23.320;2023-03-07T03:19:00;9.8;62
77700;DHT22;66867;42.658;23.320;2023-03-07T03:20:00;9.8;62
77700;DHT22;66867;42.658;23.320;2023-03-07T03:21:05;9.8;62
77700;DHT22;66867;42.658;23.320;2023-03-07T03:22:00;9.8;62
77700;DHT22;66867;42.658;23.320;2023-03-07T03:23:00;9.8;62
77700;DHT22;66867;42.658;23.320;2023-03-07T03:24:04;9.7;62
77700;DHT22;66867;42.658;23.320;2023-03-07T03:25:00;9.7;62
77700;DHT22;66867;42.658;23.320;2023-03-07T03:26:01;9.8;63
77700;DHT22;66867;42.658;23.320;2023-03-07T03:27:00;9.8;62
77700;DHT22;66867;42.658;23.320;2023-03-07T03:28:00;9.8;62
77700;DHT22;66867;42.658;23.320;2023-03-07T03:29:00;9.8;62
77700;DHT22;66867;42.658;23.320;2023-03-07T03:30:00;9.9;62
77700;DHT22;66867;42.658;23.320;2023-03-07T03:31:01;9.9;62
77700;DHT22;66867;42.658;23.320;2023-03-07T03:32:00;9.9;62
77700;DHT22;66867;42.658;23.320;2023-03-07T03:33:02;9.9;62
77700;DHT22;66867;42.658;23.320;2023-03-07T03:34:00;10.0;62
77700;DHT22;66867;42.658;23.320;2023-03-07T03:35:00;10.0;62
77700;DHT22;66867;42.658;23.320;2023-03-07T03:36:04;10.0;62
77700;DHT22;66867;42.658;23.320;2023-03-07T03:37:00;10.0;62
77700;DHT22;66867;42.658;23.320;2023-03-07T03:38:00;10.0;62
77700;DHT22;66867;42.658;23.320;2023-03-07T03:39:00;10.0;62
77700;DHT22;66867;42.658;23.320;2023-03-07T03:40:00;10.1;62
77700;DHT22;66867;42.658;23.320;2023-03-07T03:41:04;10.0;62
77700;DHT22;66867;42.658;23.320;2023-03-07T03:42:00;10.1;62
77700;DHT22;66867;42.658;23.320;2023-03-07T03:43:00;10.0;62
77700;DHT22;66867;42.658;23.320;2023-03-07T03:44:00;10.1;62
77700;DHT22;66867;42.658;23.320;2023-03-07T03:45:00;10.1;62
77700;DHT22;66867;42.658;23.320;2023-03-07T03:46:00;10.1;62
77700;DHT22;66867;42.658;23.320;2023-03-07T03:47:00;10.1;62
77700;DHT22;66867;42.658;23.320;2023-03-07T03:48:00;10.1;62
77700;DHT22;66867;42.658;23.320;2023-03-07T03:49:00;10.1;62
77700;DHT22;66867;42.658;23.320;2023-03-07T03:50:00;10.1;62
77700;DHT22;66867;42.658;23.320;2023-03-07T03:51:01;10.1;62
77700;DHT22;66867;42.658;23.320;2023-03-07T03:52:00;10.1;62
77700;DHT22;66867;42.658;23.320;2023-03-07T03:53:00;10.1;62
77700;DHT22;66867;42.658;23.320;2023-03-07T03:54:00;10.1;62
77700;DHT22;66867;42.658;23.320;2023-03-07T03:55:00;10.1;62
77700;DHT22;66867;42.658;23.320;2023-03-07T03:56:01;10.1;62
77700;DHT22;66867;42.658;23.320;2023-03-07T03:57:00;10.1;62
77700;DHT22;66867;42.658;23.320;2023-03-07T03:58:00;10.1;62
77700;DHT22;66867;42.658;23.320;2023-03-07T03:59:00;10.0;62
77700;DHT22;66867;42.658;23.320;2023-03-07T04:00:00;10.0;62
77700;DHT22;66867;42.658;23.320;2023-03-07T04:01:00;10.0;62
77700;DHT22;66867;42.658;23.320;2023-03-07T04:02:00;10.0;62
77700;DHT22;66867;42.658;23.320;2023-03-07T04:03:00;9.9;62
77700;DHT22;66867;42.658;23.320;2023-03-07T04:04:00;10.0;62
77700;DHT22;66867;42.658;23.320;2023-03-07T04:05:00;9.9;62
77700;DHT22;66867;42.658;23.320;2023-03-07T04:06:02;9.9;62
77700;DHT22;66867;42.658;23.320;2023-03-07T04:07:00;9.9;62
77700;DHT22;66867;42.658;23.320;2023-03-07T04:08:00;9.9;62
77700;DHT22;66867;42.658;23.320;2023-03-07T04:09:00;9.9;62
77700;DHT22;66867;42.658;23.320;2023-03-07T04:10:00;9.9;62
77700;DHT22;66867;42.658;23.320;2023-03-07T04:11:00;9.9;62
77700;DHT22;66867;42.658;23.320;2023-03-07T04:12:00;9.9;62
77700;DHT22;66867;42.658;23.320;2023-03-07T04:13:00;9.9;62
77700;DHT22;66867;42.658;23.320;2023-03-07T04:14:00;10.0;62
77700;DHT22;66867;42.658;23.320;2023-03-07T04:15:00;10.0;62
77700;DHT22;66867;42.658;23.320;2023-03-07T04:16:00;10.0;62
77700;DHT22;66867;42.658;23.320;2023-03-07T04:17:00;10.0;63
77700;DHT22;66867;42.658;23.320;2023-03-07T04:18:00;10.0;62
77700;DHT22;66867;42.658;23.320;2023-03-07T04:19:00;10.0;62
77700;DHT22;66867;42.658;23.320;2023-03-07T04:20:00;10.0;62
77700;DHT22;66867;42.658;23.320;2023-03-07T04:21:00;10.0;62
77700;DHT22;66867;42.658;23.320;2023-03-07T04:22:00;10.0;62
77700;DHT22;66867;42.658;23.320;2023-03-07T04:23:00;10.1;62
77700;DHT22;66867;42.658;23.320;2023-03-07T04:24:00;10.1;62
77700;DHT22;66867;42.658;23.320;2023-03-07T04:25:00;10.1;62
77700;DHT22;66867;42.658;23.320;2023-03-07T04:26:01;10.1;62
77700;DHT22;66867;42.658;23.320;2023-03-07T04:27:00;10.0;62
77700;DHT22;66867;42.658;23.320;2023-03-07T04:28:00;10.1;62
77700;DHT22;66867;42.658;23.320;2023-03-07T04:29:00;10.1;62
77700;DHT22;66867;42.658;23.320;2023-03-07T04:30:00;10.1;62
77700;DHT22;66867;42.658;23.320;2023-03-07T04:31:00;10.1;62
77700;DHT22;66867;42.658;23.320;2023-03-07T04:32:00;10.1;62
77700;DHT22;66867;42.658;23.320;2023-03-07T04:33:00;10.1;62
77700;DHT22;66867;42.658;23.320;2023-03-07T04:34:00;10.1;62
77700;DHT22;66867;42.658;23.320;2023-03-07T04:35:00;10.1;62
77700;DHT22;66867;42.658;23.320;2023-03-07T04:36:00;10.1;62
77700;DHT22;66867;42.658;23.320;2023-03-07T04:37:00;10.1;62
77700;DHT22;66867;42.658;23.320;2023-03-07T04:38:00;10.1;62
77700;DHT22;66867;42.658;23.320;2023-03-07T04:39:00;10.1;62
77700;DHT22;66867;42.658;23.320;2023-03-07T04:42:00;10.1;62
77700;DHT22;66867;42.658;23.320;2023-03-07T04:43:00;10.2;62
77700;DHT22;66867;42.658;23.320;2023-03-07T04:44:00;10.2;62
77700;DHT22;66867;42.658;23.320;2023-03-07T04:45:00;10.2;62
77700;DHT22;66867;42.658;23.320;2023-03-07T04:46:00;10.2;62
77700;DHT22;66867;42.658;23.320;2023-03-07T04:47:00;10.1;62
77700;DHT22;66867;42.658;23.320;2023-03-07T04:48:00;10.1;62
77700;DHT22;66867;42.658;23.320;2023-03-07T04:49:00;10.2;62
77700;DHT22;66867;42.658;23.320;2023-03-07T04:50:00;10.2;62
77700;DHT22;66867;42.658;23.320;2023-03-07T04:51:00;10.2;62
77700;DHT22;66867;42.658;23.320;2023-03-07T04:52:00;10.2;62
77700;DHT22;66867;42.658;23.320;2023-03-07T04:53:00;10.2;62
77700;DHT22;66867;42.658;23.320;2023-03-07T04:54:00;10.1;63
77700;DHT22;66867;42.658;23.320;2023-03-07T04:55:00;10.1;63
77700;DHT22;66867;42.658;23.320;2023-03-07T04:56:00;10.1;64
77700;DHT22;66867;42.658;23.320;2023-03-07T04:57:00;10.1;64
77700;DHT22;66867;42.658;23.320;2023-03-07T04:58:00;10.1;64
77700;DHT22;66867;42.658;23.320;2023-03-07T04:59:00;10.1;64
77700;DHT22;66867;42.658;23.320;2023-03-07T05:00:00;10.1;64
77700;DHT22;66867;42.658;23.320;2023-03-07T05:01:01;10.1;64
77700;DHT22;66867;42.658;23.320;2023-03-07T05:04:00;10.0;64
77700;DHT22;66867;42.658;23.320;2023-03-07T05:05:00;10.1;64
77700;DHT22;66867;42.658;23.320;2023-03-07T05:06:01;10.1;64
77700;DHT22;66867;42.658;23.320;2023-03-07T05:07:00;10.1;64
77700;DHT22;66867;42.658;23.320;2023-03-07T05:08:00;10.0;65
77700;DHT22;66867;42.658;23.320;2023-03-07T05:09:00;10.0;65
77700;DHT22;66867;42.658;23.320;2023-03-07T05:10:00;10.0;65
77700;DHT22;66867;42.658;23.320;2023-03-07T05:11:00;10.0;65
77700;DHT22;66867;42.658;23.320;2023-03-07T05:12:00;10.1;65
77700;DHT22;66867;42.658;23.320;2023-03-07T05:13:00;10.1;65
77700;DHT22;66867;42.658;23.320;2023-03-07T05:14:00;10.1;65
77700;DHT22;66867;42.658;23.320;2023-03-07T05:15:00;10.1;65
77700;DHT22;66867;42.658;23.320;2023-03-07T05:16:00;10.1;65
77700;DHT22;66867;42.658;23.320;2023-03-07T05:17:00;10.1;65
77700;DHT22;66867;42.658;23.320;2023-03-07T05:18:00;10.1;65
77700;DHT22;66867;42.658;23.320;2023-03-07T05:19:00;10.1;65
77700;DHT22;66867;42.658;23.320;2023-03-07T05:20:00;10.1;65
77700;DHT22;66867;42.658;23.320;2023-03-07T05:21:00;10.1;65
77700;DHT22;66867;42.658;23.320;2023-03-07T05:22:00;10.0;66
77700;DHT22;66867;42.658;23.320;2023-03-07T05:23:00;10.0;66
77700;DHT22;66867;42.658;23.320;2023-03-07T05:24:00;10.0;66
77700;DHT22;66867;42.658;23.320;2023-03-07T05:25:00;9.9;66
77700;DHT22;66867;42.658;23.320;2023-03-07T05:26:00;10.0;66
77700;DHT22;66867;42.658;23.320;2023-03-07T05:27:00;10.0;66
77700;DHT22;66867;42.658;23.320;2023-03-07T05:28:00;10.0;66
77700;DHT22;66867;42.658;23.320;2023-03-07T05:29:00;10.0;66
77700;DHT22;66867;42.658;23.320;2023-03-07T05:30:00;10.0;66
77700;DHT22;66867;42.658;23.320;2023-03-07T05:31:00;10.0;66
77700;DHT22;66867;42.658;23.320;2023-03-07T05:32:00;10.0;66
77700;DHT22;66867;42.658;23.320;2023-03-07T05:33:00;10.0;66
77700;DHT22;66867;42.658;23.320;2023-03-07T05:34:00;10.0;66
77700;DHT22;66867;42.658;23.320;2023-03-07T05:35:00;10.1;66
77700;DHT22;66867;42.658;23.320;2023-03-07T05:36:00;10.0;66
77700;DHT22;66867;42.658;23.320;2023-03-07T05:37:00;10.1;66
77700;DHT22;66867;42.658;23.320;2023-03-07T05:38:00;10.1;66
77700;DHT22;66867;42.658;23.320;2023-03-07T05:39:00;10.1;66
77700;DHT22;66867;42.658;23.320;2023-03-07T05:40:00;10.1;66
77700;DHT22;66867;42.658;23.320;2023-03-07T05:41:00;10.1;66
77700;DHT22;66867;42.658;23.320;2023-03-07T05:42:00;10.1;66
77700;DHT22;66867;42.658;23.320;2023-03-07T05:43:00;10.1;66
77700;DHT22;66867;42.658;23.320;2023-03-07T05:44:00;10.1;66
77700;DHT22;66867;42.658;23.320;2023-03-07T05:45:00;10.1;66
77700;DHT22;66867;42.658;23.320;2023-03-07T05:46:00;10.1;66
77700;DHT22;66867;42.658;23.320;2023-03-07T05:48:00;10.0;66
77700;DHT22;66867;42.658;23.320;2023-03-07T05:49:00;10.0;66
77700;DHT22;66867;42.658;23.320;2023-03-07T05:50:00;10.0;66
77700;DHT22;66867;42.658;23.320;2023-03-07T05:51:00;10.1;66
77700;DHT22;66867;42.658;23.320;2023-03-07T05:52:00;10.0;66
77700;DHT22;66867;42.658;23.320;2023-03-07T05:53:00;10.0;66
77700;DHT22;66867;42.658;23.320;2023-03-07T05:54:00;10.0;66
77700;DHT22;66867;42.658;23.320;2023-03-07T05:55:00;10.0;67
77700;DHT22;66867;42.658;23.320;2023-03-07T05:56:00;9.9;67
77700;DHT22;66867;42.658;23.320;2023-03-07T05:57:00;10.0;67
77700;DHT22;66867;42.658;23.320;2023-03-07T05:58:00;10.0;67
77700;DHT22;66867;42.658;23.320;2023-03-07T05:59:00;10.0;67
77700;DHT22;66867;42.658;23.320;2023-03-07T06:00:00;10.0;67
77700;DHT22;66867;42.658;23.320;2023-03-07T06:02:00;10.0;67
77700;DHT22;66867;42.658;23.320;2023-03-07T06:03:01;10.0;67
77700;DHT22;66867;42.658;23.320;2023-03-07T06:05:00;10.0;67
77700;DHT22;66867;42.658;23.320;2023-03-07T06:06:00;10.0;67
77700;DHT22;66867;42.658;23.320;2023-03-07T06:07:00;10.0;67
77700;DHT22;66867;42.658;23.320;2023-03-07T06:08:00;10.1;67
77700;DHT22;66867;42.658;23.320;2023-03-07T06:09:00;10.0;67
77700;DHT22;66867;42.658;23.320;2023-03-07T06:10:00;10.0;67
77700;DHT22;66867;42.658;23.320;2023-03-07T06:11:00;9.9;68
77700;DHT22;66867;42.658;23.320;2023-03-07T06:12:00;10.0;68
77700;DHT22;66867;42.658;23.320;2023-03-07T06:13:00;10.0;68
77700;DHT22;66867;42.658;23.320;2023-03-07T06:15:00;10.1;68
77700;DHT22;66867;42.658;23.320;2023-03-07T06:16:00;10.1;68
77700;DHT22;66867;42.658;23.320;2023-03-07T06:17:00;10.2;68
77700;DHT22;66867;42.658;23.320;2023-03-07T06:19:00;10.2;68
77700;DHT22;66867;42.658;23.320;2023-03-07T06:20:00;10.2;69
77700;DHT22;66867;42.658;23.320;2023-03-07T06:21:01;10.3;68
77700;DHT22;66867;42.658;23.320;2023-03-07T06:22:00;10.4;68
77700;DHT22;66867;42.658;23.320;2023-03-07T06:23:00;10.4;68
77700;DHT22;66867;42.658;23.320;2023-03-07T06:24:00;10.5;68
77700;DHT22;66867;42.658;23.320;2023-03-07T06:25:00;10.6;68
77700;DHT22;66867;42.658;23.320;2023-03-07T06:26:00;10.7;67
77700;DHT22;66867;42.658;23.320;2023-03-07T06:27:00;10.7;68
77700;DHT22;66867;42.658;23.320;2023-03-07T06:28:00;10.8;67
77700;DHT22;66867;42.658;23.320;2023-03-07T06:29:00;10.9;67
77700;DHT22;66867;42.658;23.320;2023-03-07T06:30:00;11.0;67
77700;DHT22;66867;42.658;23.320;2023-03-07T06:31:00;11.0;66
77700;DHT22;66867;42.658;23.320;2023-03-07T06:32:00;11.0;66
77700;DHT22;66867;42.658;23.320;2023-03-07T06:33:00;11.0;66
77700;DHT22;66867;42.658;23.320;2023-03-07T06:34:00;11.1;66
77700;DHT22;66867;42.658;23.320;2023-03-07T06:35:00;11.2;65
77700;DHT22;66867;42.658;23.320;2023-03-07T06:36:03;11.2;65
77700;DHT22;66867;42.658;23.320;2023-03-07T06:37:00;11.2;64
77700;DHT22;66867;42.658;23.320;2023-03-07T06:38:00;11.2;64
77700;DHT22;66867;42.658;23.320;2023-03-07T06:39:00;11.2;64
77700;DHT22;66867;42.658;23.320;2023-03-07T06:41:00;11.2;64
77700;DHT22;66867;42.658;23.320;2023-03-07T06:42:00;11.2;64
77700;DHT22;66867;42.658;23.320;2023-03-07T06:43:00;11.1;64
77700;DHT22;66867;42.658;23.320;2023-03-07T06:45:00;11.1;64
77700;DHT22;66867;42.658;23.320;2023-03-07T06:52:00;11.5;68
77700;DHT22;66867;42.658;23.320;2023-03-07T06:53:00;11.5;64
77700;DHT22;66867;42.658;23.320;2023-03-07T06:54:00;11.6;64
77700;DHT22;66867;42.658;23.320;2023-03-07T06:55:00;11.6;63
77700;DHT22;66867;42.658;23.320;2023-03-07T06:56:00;11.6;63
77700;DHT22;66867;42.658;23.320;2023-03-07T06:57:00;11.7;63
77700;DHT22;66867;42.658;23.320;2023-03-07T06:58:00;11.7;63
77700;DHT22;66867;42.658;23.320;2023-03-07T06:59:00;11.7;63
77700;DHT22;66867;42.658;23.320;2023-03-07T07:00:01;11.7;63
77700;DHT22;66867;42.658;23.320;2023-03-07T07:01:00;11.7;63
77700;DHT22;66867;42.658;23.320;2023-03-07T07:02:00;11.8;62
77700;DHT22;66867;42.658;23.320;2023-03-07T07:03:00;11.8;62
77700;DHT22;66867;42.658;23.320;2023-03-07T07:04:00;11.7;62
77700;DHT22;66867;42.658;23.320;2023-03-07T07:05:00;11.7;62